createdAt,value
2019-04-25T00:00:36.674Z,11.00
2019-04-25T00:03:06.789Z,11.01
2019-04-25T00:05:38.717Z,11.00
2019-04-25T00:08:09.242Z,11.03
2019-04-25T00:10:39.242Z,11.07
2019-04-25T00:13:09.250Z,11.02
2019-04-25T00:15:39.957Z,11.01
2019-04-25T00:18:09.991Z,10.97
2019-04-25T00:20:43.601Z,10.97
2019-04-25T00:23:16.594Z,10.93
2019-04-25T00:26:21.146Z,10.99
2019-04-25T00:28:52.388Z,10.98
2019-04-25T00:31:22.812Z,10.99
2019-04-25T00:33:53.358Z,11.00
2019-04-25T00:36:23.153Z,11.03
2019-04-25T00:38:53.298Z,11.09
2019-04-25T00:41:23.038Z,11.09
2019-04-25T00:43:52.966Z,11.10
2019-04-25T00:46:22.876Z,11.16
2019-04-25T00:48:52.744Z,11.14
2019-04-25T00:51:22.649Z,11.10
2019-04-25T00:53:54.723Z,11.07
2019-04-25T00:56:23.752Z,11.10
2019-04-25T00:59:05.669Z,11.13
2019-04-25T01:01:57.247Z,11.12
2019-04-25T01:04:29.110Z,11.10
2019-04-25T01:06:58.954Z,11.09
2019-04-25T01:09:29.091Z,11.12
2019-04-25T01:11:59.095Z,11.16
2019-04-25T01:14:28.982Z,11.16
2019-04-25T01:16:58.868Z,11.19
2019-04-25T01:19:29.850Z,11.18
2019-04-25T01:21:59.826Z,11.17
2019-04-25T01:24:29.615Z,11.19
2019-04-25T01:26:59.636Z,11.21
2019-04-25T01:29:29.476Z,11.23
2019-04-25T01:31:59.324Z,11.21
2019-04-25T01:34:44.173Z,11.20
2019-04-25T01:37:31.452Z,11.25
2019-04-25T01:40:18.850Z,11.26
2019-04-25T01:43:16.752Z,11.26
2019-04-25T01:45:48.106Z,11.19
2019-04-25T01:48:18.216Z,11.18
2019-04-25T01:50:49.341Z,11.12
2019-04-25T01:53:19.496Z,11.17
2019-04-25T01:55:55.840Z,11.28
2019-04-25T01:58:21.222Z,11.26
2019-04-25T02:00:54.563Z,11.25
2019-04-25T02:03:27.021Z,11.25
2019-04-25T02:05:56.154Z,11.24
2019-04-25T02:08:26.986Z,11.20
2019-04-25T02:11:14.421Z,11.22
2019-04-25T02:13:44.194Z,11.16
2019-04-25T02:16:14.274Z,11.20
2019-04-25T02:18:44.152Z,11.12
2019-04-25T02:21:14.029Z,11.10
2019-04-25T02:23:44.302Z,11.12
2019-04-25T02:26:17.919Z,11.16
2019-04-25T02:28:45.543Z,11.19
2019-04-25T02:31:18.303Z,11.15
2019-04-25T02:33:47.121Z,11.16
2019-04-25T02:36:17.035Z,11.21
2019-04-25T02:38:47.002Z,11.20
2019-04-25T02:41:16.991Z,11.19
2019-04-25T02:43:46.807Z,11.26
2019-04-25T02:46:34.823Z,11.23
2019-04-25T02:49:32.711Z,11.25
2019-04-25T02:52:06.926Z,11.27
2019-04-25T02:54:35.003Z,11.22
2019-04-25T02:57:07.794Z,11.21
2019-04-25T02:59:37.068Z,11.25
2019-04-25T03:02:09.355Z,11.25
2019-04-25T03:04:39.269Z,11.25
2019-04-25T03:07:11.245Z,11.21
2019-04-25T03:09:42.080Z,11.17
2019-04-25T03:12:26.772Z,11.24
2019-04-25T03:14:44.609Z,11.19
2019-04-25T03:17:14.903Z,11.26
2019-04-25T03:20:08.044Z,11.25
2019-04-25T03:22:36.565Z,11.28
2019-04-25T03:25:11.587Z,11.28
2019-04-25T03:27:39.557Z,11.27
2019-04-25T03:30:13.725Z,11.18
2019-04-25T03:32:44.807Z,11.19
2019-04-25T03:35:14.473Z,11.24
2019-04-25T03:37:44.415Z,11.19
2019-04-25T03:40:14.377Z,11.25
2019-04-25T03:42:44.300Z,11.28
2019-04-25T03:45:14.902Z,11.28
2019-04-25T03:47:44.963Z,11.37
2019-04-25T03:50:14.747Z,11.39
2019-04-25T03:52:44.804Z,11.44
2019-04-25T03:55:15.835Z,11.55
2019-04-25T03:57:45.620Z,11.56
2019-04-25T04:00:15.538Z,11.56
2019-04-25T04:02:45.510Z,11.52
2019-04-25T04:05:15.279Z,11.55
2019-04-25T04:07:45.187Z,11.69
2019-04-25T04:10:16.350Z,11.71
2019-04-25T04:12:46.266Z,11.80
2019-04-25T04:15:17.157Z,11.84
2019-04-25T04:18:08.665Z,11.90
2019-04-25T04:21:09.363Z,11.90
2019-04-25T04:23:48.272Z,11.91
2019-04-25T04:26:18.273Z,12.01
2019-04-25T04:28:48.234Z,11.98
2019-04-25T04:31:18.105Z,12.02
2019-04-25T04:33:47.970Z,11.99
2019-04-25T04:36:18.988Z,12.07
2019-04-25T04:38:49.922Z,12.10
2019-04-25T04:41:19.488Z,12.18
2019-04-25T04:43:49.003Z,12.10
2019-04-25T04:46:19.788Z,11.99
2019-04-25T04:48:49.320Z,12.10
2019-04-25T04:51:19.015Z,12.21
2019-04-25T04:53:49.967Z,12.19
2019-04-25T04:56:19.657Z,12.30
2019-04-25T04:58:49.401Z,12.23
2019-04-25T05:01:20.895Z,12.28
2019-04-25T05:04:01.114Z,12.26
2019-04-25T05:06:35.888Z,12.23
2019-04-25T05:09:19.775Z,12.29
2019-04-25T05:11:49.940Z,12.22
2019-04-25T05:14:19.681Z,12.28
2019-04-25T05:16:49.705Z,12.54
2019-04-25T05:19:20.756Z,12.60
2019-04-25T05:21:53.593Z,12.55
2019-04-25T05:24:24.982Z,12.56
2019-04-25T05:26:54.941Z,12.66
2019-04-25T05:29:26.716Z,12.77
2019-04-25T05:31:57.704Z,12.82
2019-04-25T05:34:27.648Z,12.87
2019-04-25T05:36:57.338Z,12.90
2019-04-25T05:39:27.398Z,12.81
2019-04-25T05:42:17.170Z,12.92
2019-04-25T05:44:47.422Z,12.84
2019-04-25T05:47:20.066Z,13.05
2019-04-25T05:49:48.861Z,12.99
2019-04-25T05:52:18.811Z,13.04
2019-04-25T05:54:48.359Z,13.04
2019-04-25T05:57:18.184Z,13.20
2019-04-25T05:59:48.034Z,13.10
2019-04-25T06:02:17.925Z,13.17
2019-04-25T06:04:47.747Z,13.37
2019-04-25T06:07:19.384Z,13.61
2019-04-25T06:09:56.855Z,13.74
2019-04-25T06:12:37.972Z,13.64
2019-04-25T06:15:08.087Z,13.54
2019-04-25T06:17:56.943Z,13.70
2019-04-25T06:20:30.107Z,13.80
2019-04-25T06:23:06.679Z,13.82
2019-04-25T06:25:39.874Z,13.99
2019-04-25T06:28:11.030Z,14.06
2019-04-25T06:30:40.984Z,14.10
2019-04-25T06:33:10.886Z,14.21
2019-04-25T06:35:40.606Z,14.23
2019-04-25T06:38:10.357Z,14.37
2019-04-25T06:40:40.124Z,14.43
2019-04-25T06:43:09.945Z,14.40
2019-04-25T06:45:58.721Z,14.58
2019-04-25T06:48:45.530Z,14.48
2019-04-25T06:51:15.958Z,14.44
2019-04-25T06:53:45.747Z,14.49
2019-04-25T06:56:15.695Z,14.49
2019-04-25T06:58:45.748Z,14.41
2019-04-25T07:01:15.597Z,14.49
2019-04-25T07:03:45.459Z,14.56
2019-04-25T07:06:15.598Z,14.36
2019-04-25T07:08:45.267Z,14.39
2019-04-25T07:11:16.439Z,14.48
2019-04-25T07:13:46.298Z,14.66
2019-04-25T07:16:16.025Z,14.80
2019-04-25T07:18:46.105Z,15.10
2019-04-25T07:21:15.955Z,15.18
2019-04-25T07:23:46.359Z,14.87
2019-04-25T07:26:30.408Z,14.57
2019-04-25T07:29:13.437Z,14.59
2019-04-25T07:32:09.089Z,14.73
2019-04-25T07:34:38.957Z,14.81
2019-04-25T07:37:09.841Z,15.00
2019-04-25T07:39:39.653Z,15.13
2019-04-25T07:42:09.669Z,15.08
2019-04-25T07:44:49.922Z,15.34
2019-04-25T07:47:10.893Z,15.27
2019-04-25T07:49:40.874Z,15.24
2019-04-25T07:52:11.589Z,15.09
2019-04-25T07:54:43.920Z,14.96
2019-04-25T07:57:13.718Z,15.23
2019-04-25T07:59:43.719Z,15.40
2019-04-25T08:02:13.611Z,15.35
2019-04-25T08:04:44.322Z,15.39
2019-04-25T08:07:15.810Z,15.06
2019-04-25T08:09:45.642Z,14.88
2019-04-25T08:12:15.657Z,14.79
2019-04-25T08:14:54.690Z,14.84
2019-04-25T08:17:44.061Z,15.10
2019-04-25T08:20:15.233Z,15.15
2019-04-25T08:22:55.745Z,15.42
2019-04-25T08:25:17.227Z,15.63
2019-04-25T08:27:47.312Z,15.14
2019-04-25T08:30:17.428Z,14.80
2019-04-25T08:32:48.154Z,14.95
2019-04-25T08:35:17.945Z,15.20
2019-04-25T08:37:47.936Z,14.98
2019-04-25T08:40:18.889Z,15.21
2019-04-25T08:42:48.776Z,15.13
2019-04-25T08:45:18.987Z,14.98
2019-04-25T08:47:48.771Z,14.98
2019-04-25T08:50:37.242Z,15.15
2019-04-25T08:53:05.403Z,15.43
2019-04-25T08:56:06.824Z,15.30
2019-04-25T08:59:10.779Z,15.34
2019-04-25T09:02:03.481Z,14.94
2019-04-25T09:04:54.019Z,15.36
2019-04-25T09:07:24.166Z,15.27
2019-04-25T09:09:53.951Z,15.32
2019-04-25T09:12:24.104Z,15.28
2019-04-25T09:14:54.255Z,15.48
2019-04-25T09:17:24.407Z,15.55
2019-04-25T09:19:54.400Z,15.50
2019-04-25T09:22:24.337Z,15.51
2019-04-25T09:24:54.180Z,15.48
2019-04-25T09:27:24.141Z,15.46
2019-04-25T09:29:54.261Z,15.52
2019-04-25T09:32:24.363Z,15.30
2019-04-25T09:34:55.438Z,15.19
2019-04-25T09:37:25.107Z,15.15
2019-04-25T09:40:08.503Z,15.20
2019-04-25T09:42:39.373Z,15.08
2019-04-25T09:45:28.401Z,15.02
2019-04-25T09:48:00.953Z,15.00
2019-04-25T09:50:53.360Z,15.09
2019-04-25T09:53:23.826Z,15.23
2019-04-25T09:56:01.058Z,15.39
2019-04-25T09:58:47.004Z,15.32
2019-04-25T10:01:17.389Z,15.28
2019-04-25T10:03:48.138Z,15.44
2019-04-25T10:06:19.843Z,15.57
2019-04-25T10:08:49.739Z,15.60
2019-04-25T10:11:19.422Z,15.38
2019-04-25T10:14:05.447Z,15.07
2019-04-25T10:16:35.221Z,15.40
2019-04-25T10:19:05.141Z,15.44
2019-04-25T10:21:35.475Z,15.26
2019-04-25T10:24:05.444Z,15.16
2019-04-25T10:26:35.212Z,15.15
2019-04-25T10:29:05.279Z,15.11
2019-04-25T10:31:34.946Z,15.26
2019-04-25T10:34:04.907Z,15.32
2019-04-25T10:36:34.630Z,15.16
2019-04-25T10:39:10.293Z,15.19
2019-04-25T10:41:39.770Z,15.17
2019-04-25T10:44:09.611Z,15.46
2019-04-25T10:46:40.181Z,15.27
2019-04-25T10:49:10.005Z,14.98
2019-04-25T10:51:39.896Z,15.34
2019-04-25T10:54:10.521Z,15.58
2019-04-25T10:56:41.653Z,15.42
2019-04-25T10:59:11.426Z,15.29
2019-04-25T11:01:41.308Z,15.26
2019-04-25T11:04:33.172Z,15.40
2019-04-25T11:07:03.772Z,15.52
2019-04-25T11:09:34.282Z,15.34
2019-04-25T11:12:04.736Z,15.48
2019-04-25T11:14:34.660Z,15.40
2019-04-25T11:17:06.040Z,15.52
2019-04-25T11:19:37.242Z,15.57
2019-04-25T11:22:07.755Z,15.40
2019-04-25T11:24:38.967Z,15.52
2019-04-25T11:27:08.843Z,16.06
2019-04-25T11:29:39.177Z,16.12
2019-04-25T11:32:09.092Z,16.17
2019-04-25T11:34:39.120Z,16.12
2019-04-25T11:37:08.831Z,16.70
2019-04-25T11:39:58.946Z,16.93
2019-04-25T11:42:29.121Z,16.28
2019-04-25T11:44:58.920Z,16.81
2019-04-25T11:47:29.106Z,16.92
2019-04-25T11:49:58.915Z,17.02
2019-04-25T11:52:30.323Z,16.91
2019-04-25T11:55:00.214Z,16.09
2019-04-25T11:57:31.297Z,15.93
2019-04-25T12:00:01.156Z,15.73
2019-04-25T12:02:30.912Z,15.58
2019-04-25T12:05:00.798Z,15.51
2019-04-25T12:07:30.508Z,15.50
2019-04-25T12:10:00.373Z,15.38
2019-04-25T12:12:30.384Z,15.70
2019-04-25T12:15:00.258Z,16.05
2019-04-25T12:17:30.203Z,16.36
2019-04-25T12:20:00.017Z,16.37
2019-04-25T12:22:31.175Z,16.69
2019-04-25T12:25:02.233Z,16.24
2019-04-25T12:27:32.158Z,16.54
2019-04-25T12:30:03.898Z,16.53
2019-04-25T12:32:35.181Z,16.85
2019-04-25T12:35:06.161Z,17.37
2019-04-25T12:37:36.362Z,17.65
2019-04-25T12:40:07.395Z,17.42
2019-04-25T12:42:37.259Z,17.67
2019-04-25T12:45:24.237Z,17.55
2019-04-25T12:47:57.267Z,17.54
2019-04-25T12:50:25.657Z,17.46
2019-04-25T12:52:56.080Z,17.87
2019-04-25T12:55:25.911Z,17.34
2019-04-25T12:57:56.569Z,17.64
2019-04-25T13:00:27.443Z,17.29
2019-04-25T13:02:58.763Z,17.20
2019-04-25T13:05:28.545Z,17.26
2019-04-25T13:07:59.728Z,17.55
2019-04-25T13:10:29.955Z,17.02
2019-04-25T13:12:59.866Z,16.72
2019-04-25T13:15:29.725Z,16.58
2019-04-25T13:17:59.653Z,16.42
2019-04-25T13:20:29.585Z,16.87
2019-04-25T13:23:00.510Z,16.96
2019-04-25T13:25:30.531Z,16.37
2019-04-25T13:28:17.493Z,16.30
2019-04-25T13:31:12.109Z,16.26
2019-04-25T13:33:55.046Z,16.51
2019-04-25T13:36:24.865Z,17.17
2019-04-25T13:38:54.681Z,16.39
2019-04-25T13:41:24.766Z,16.84
2019-04-25T13:43:54.803Z,16.90
2019-04-25T13:46:26.186Z,16.59
2019-04-25T13:48:56.141Z,16.45
2019-04-25T13:51:26.152Z,16.21
2019-04-25T13:53:56.028Z,16.58
2019-04-25T13:56:27.163Z,16.62
2019-04-25T13:58:57.302Z,16.80
2019-04-25T14:01:27.640Z,16.49
2019-04-25T14:03:57.516Z,16.01
2019-04-25T14:06:27.122Z,15.89
2019-04-25T14:08:56.919Z,16.03
2019-04-25T14:11:26.850Z,16.13
2019-04-25T14:13:56.717Z,15.60
2019-04-25T14:16:51.622Z,15.93
2019-04-25T14:19:54.175Z,16.23
2019-04-25T14:22:25.206Z,16.07
2019-04-25T14:24:55.211Z,16.26
2019-04-25T14:27:28.044Z,16.22
2019-04-25T14:29:58.363Z,16.43
2019-04-25T14:32:28.900Z,16.20
2019-04-25T14:34:59.926Z,15.98
2019-04-25T14:37:35.070Z,15.90
2019-04-25T14:40:04.074Z,16.08
2019-04-25T14:42:33.869Z,16.15
2019-04-25T14:45:05.013Z,16.15
2019-04-25T14:47:34.737Z,15.83
2019-04-25T14:50:04.777Z,15.95
2019-04-25T14:52:35.829Z,16.29
2019-04-25T14:55:24.768Z,15.87
2019-04-25T14:57:55.499Z,15.70
2019-04-25T15:00:31.436Z,15.70
2019-04-25T15:03:01.063Z,15.68
2019-04-25T15:05:31.002Z,15.57
2019-04-25T15:08:00.837Z,15.11
2019-04-25T15:10:30.797Z,14.98
2019-04-25T15:13:00.650Z,14.92
2019-04-25T15:15:31.817Z,14.88
2019-04-25T15:18:01.904Z,14.84
2019-04-25T15:20:32.331Z,14.53
2019-04-25T15:23:01.991Z,14.53
2019-04-25T15:25:31.882Z,14.66
2019-04-25T15:28:01.667Z,14.82
2019-04-25T15:30:34.502Z,14.95
2019-04-25T15:33:04.596Z,14.41
2019-04-25T15:35:49.589Z,14.19
2019-04-25T15:38:25.578Z,14.30
2019-04-25T15:41:04.313Z,14.30
2019-04-25T15:43:41.959Z,14.05
2019-04-25T15:46:19.620Z,14.12
2019-04-25T15:48:49.334Z,14.25
2019-04-25T15:51:19.147Z,14.06
2019-04-25T15:53:48.915Z,13.72
2019-04-25T15:56:18.805Z,13.76
2019-04-25T15:58:48.600Z,13.64
2019-04-25T16:01:18.688Z,13.61
2019-04-25T16:03:48.458Z,13.56
2019-04-25T16:06:18.365Z,13.51
2019-04-25T16:08:49.622Z,13.68
2019-04-25T16:11:19.412Z,13.47
2019-04-25T16:13:49.331Z,13.31
2019-04-25T16:16:20.517Z,13.19
2019-04-25T16:18:50.302Z,13.01
2019-04-25T16:21:20.227Z,12.82
2019-04-25T16:23:51.400Z,12.63
2019-04-25T16:26:21.252Z,12.53
2019-04-25T16:28:50.986Z,12.49
2019-04-25T16:31:24.589Z,12.36
2019-04-25T16:33:55.536Z,12.31
2019-04-25T16:36:25.349Z,12.25
2019-04-25T16:38:55.251Z,12.23
2019-04-25T16:41:26.407Z,12.19
2019-04-25T16:44:00.541Z,11.98
2019-04-25T16:46:30.334Z,12.12
2019-04-25T16:49:01.515Z,12.13
2019-04-25T16:51:31.374Z,12.11
2019-04-25T16:54:01.216Z,12.05
2019-04-25T16:56:31.066Z,12.10
2019-04-25T16:59:01.113Z,12.18
2019-04-25T17:01:31.671Z,12.18
2019-04-25T17:04:01.645Z,12.12
2019-04-25T17:06:31.656Z,12.13
2019-04-25T17:09:01.328Z,12.09
2019-04-25T17:11:31.965Z,12.09
2019-04-25T17:14:20.602Z,12.16
2019-04-25T17:17:02.966Z,12.10
2019-04-25T17:19:55.550Z,12.01
2019-04-25T17:22:26.673Z,11.88
2019-04-25T17:24:56.330Z,11.77
2019-04-25T17:27:26.163Z,11.75
2019-04-25T17:29:56.429Z,11.77
2019-04-25T17:32:50.336Z,11.83
2019-04-25T17:35:31.899Z,11.87
2019-04-25T17:38:24.736Z,11.84
2019-04-25T17:40:54.520Z,11.72
2019-04-25T17:43:24.564Z,11.69
2019-04-25T17:45:54.347Z,11.71
2019-04-25T17:48:24.303Z,11.67
2019-04-25T17:50:54.184Z,11.68
2019-04-25T17:53:24.000Z,11.73
2019-04-25T17:55:53.744Z,11.72
2019-04-25T17:58:23.666Z,11.70
2019-04-25T18:00:53.436Z,11.69
2019-04-25T18:03:23.454Z,11.61
2019-04-25T18:05:53.456Z,11.61
2019-04-25T18:08:23.824Z,11.64
2019-04-25T18:10:55.105Z,11.58
2019-04-25T18:13:24.855Z,11.56
2019-04-25T18:16:25.833Z,11.52
2019-04-25T18:19:04.011Z,11.56
2019-04-25T18:21:35.874Z,11.58
2019-04-25T18:24:37.145Z,11.58
2019-04-25T18:27:13.521Z,11.53
2019-04-25T18:29:43.705Z,11.51
2019-04-25T18:32:14.895Z,11.50
2019-04-25T18:34:54.727Z,11.47
2019-04-25T18:37:42.835Z,11.52
2019-04-25T18:40:24.130Z,11.50
2019-04-25T18:43:25.919Z,11.52
2019-04-25T18:46:00.240Z,11.46
2019-04-25T18:48:31.494Z,11.46
2019-04-25T18:51:01.297Z,11.46
2019-04-25T18:54:05.219Z,11.49
2019-04-25T18:56:50.068Z,11.50
2019-04-25T18:59:39.547Z,11.51
2019-04-25T19:02:38.524Z,11.51
2019-04-25T19:05:38.667Z,11.53
2019-04-25T19:08:09.305Z,11.56
2019-04-25T19:10:40.785Z,11.62
2019-04-25T19:13:12.794Z,11.62
2019-04-25T19:15:43.112Z,11.63
2019-04-25T19:18:12.866Z,11.58
2019-04-25T19:20:43.936Z,11.59
2019-04-25T19:23:13.842Z,11.61
2019-04-25T19:25:43.792Z,11.65
2019-04-25T19:28:14.810Z,11.60
2019-04-25T19:30:45.099Z,11.65
2019-04-25T19:33:15.355Z,11.62
2019-04-25T19:35:46.415Z,11.52
2019-04-25T19:38:16.190Z,11.52
2019-04-25T19:41:04.845Z,11.45
2019-04-25T19:43:54.123Z,11.44
2019-04-25T19:46:38.134Z,11.46
2019-04-25T19:49:08.199Z,11.43
2019-04-25T19:51:38.116Z,11.51
2019-04-25T19:54:08.195Z,11.50
2019-04-25T19:56:37.956Z,11.51
2019-04-25T19:59:07.973Z,11.57
2019-04-25T20:01:39.039Z,11.53
2019-04-25T20:04:39.982Z,11.50
2019-04-25T20:07:19.699Z,11.53
2019-04-25T20:09:57.496Z,11.49
2019-04-25T20:12:33.175Z,11.53
2019-04-25T20:15:04.292Z,11.43
2019-04-25T20:17:34.224Z,11.44
2019-04-25T20:20:05.529Z,11.35
2019-04-25T20:22:35.288Z,11.38
2019-04-25T20:25:05.716Z,11.38
2019-04-25T20:27:35.688Z,11.42
2019-04-25T20:30:06.292Z,11.41
2019-04-25T20:32:36.161Z,11.33
2019-04-25T20:35:06.590Z,11.35
2019-04-25T20:37:36.357Z,11.33
2019-04-25T20:40:06.630Z,11.34
2019-04-25T20:42:36.452Z,11.32
2019-04-25T20:45:08.457Z,11.39
2019-04-25T20:47:38.422Z,11.34
2019-04-25T20:50:09.061Z,11.34
2019-04-25T20:52:38.960Z,11.29
2019-04-25T20:55:08.995Z,11.27
2019-04-25T20:57:38.752Z,11.25
2019-04-25T21:00:09.920Z,11.26
2019-04-25T21:02:39.695Z,11.21
2019-04-25T21:05:09.722Z,11.22
2019-04-25T21:07:40.652Z,11.26
2019-04-25T21:10:10.592Z,11.26
2019-04-25T21:12:40.361Z,11.24
2019-04-25T21:15:36.724Z,11.19
2019-04-25T21:18:14.430Z,11.23
2019-04-25T21:20:44.287Z,11.20
2019-04-25T21:23:13.936Z,11.19
2019-04-25T21:25:43.731Z,11.19
2019-04-25T21:28:14.604Z,11.17
2019-04-25T21:30:44.385Z,11.15
2019-04-25T21:33:14.107Z,11.15
2019-04-25T21:35:43.992Z,11.10
2019-04-25T21:38:15.437Z,11.09
2019-04-25T21:41:09.954Z,10.98
2019-04-25T21:43:44.623Z,11.02
2019-04-25T21:46:14.762Z,11.03
2019-04-25T21:48:44.644Z,11.07
2019-04-25T21:51:33.060Z,11.09
2019-04-25T21:54:03.925Z,11.10
2019-04-25T21:56:34.167Z,11.05
2019-04-25T21:59:04.255Z,11.06
2019-04-25T22:01:40.051Z,11.07
2019-04-25T22:04:09.921Z,11.06
2019-04-25T22:06:39.951Z,11.06
2019-04-25T22:09:15.230Z,11.00
2019-04-25T22:11:45.306Z,11.00
2019-04-25T22:14:16.251Z,10.92
2019-04-25T22:16:46.429Z,10.89
2019-04-25T22:19:16.428Z,10.91
2019-04-25T22:21:46.724Z,10.98
2019-04-25T22:24:16.981Z,10.88
2019-04-25T22:26:49.391Z,10.84
2019-04-25T22:29:19.110Z,10.85
2019-04-25T22:32:15.062Z,10.88
2019-04-25T22:34:55.435Z,10.79
2019-04-25T22:37:26.555Z,10.89
2019-04-25T22:39:56.599Z,10.79
2019-04-25T22:42:26.515Z,10.82
2019-04-25T22:44:57.690Z,10.88
2019-04-25T22:47:27.473Z,10.85
2019-04-25T22:49:57.317Z,10.80
2019-04-25T22:52:27.369Z,10.90
2019-04-25T22:54:57.209Z,10.91
2019-04-25T22:57:27.031Z,10.86
2019-04-25T22:59:56.844Z,10.94
2019-04-25T23:02:46.142Z,10.88
2019-04-25T23:05:28.837Z,10.86
2019-04-25T23:07:58.903Z,10.87
2019-04-25T23:10:29.069Z,10.85
2019-04-25T23:12:58.914Z,10.92
2019-04-25T23:15:28.805Z,11.00
2019-04-25T23:17:58.784Z,11.03
2019-04-25T23:20:28.446Z,10.87
2019-04-25T23:22:58.371Z,10.85
2019-04-25T23:25:34.263Z,10.74
2019-04-25T23:28:12.248Z,10.70
2019-04-25T23:31:13.336Z,10.73
2019-04-25T23:33:43.240Z,10.99
2019-04-25T23:36:13.238Z,10.93
2019-04-25T23:38:42.942Z,10.66
2019-04-25T23:41:13.601Z,10.52
2019-04-25T23:43:43.367Z,10.37
2019-04-25T23:46:14.182Z,10.20
2019-04-25T23:48:44.132Z,9.98
2019-04-25T23:51:14.060Z,9.82
2019-04-25T23:53:44.945Z,9.77
2019-04-25T23:56:15.272Z,9.75
2019-04-25T23:58:45.453Z,9.85
